createdAt,value
2019-04-30T00:00:18.268Z,4.00
2019-04-30T00:01:18.891Z,4.00
2019-04-30T00:02:16.799Z,4.00
2019-04-30T00:03:19.521Z,4.00
2019-04-30T00:04:16.841Z,4.00
2019-04-30T00:05:18.724Z,4.00
2019-04-30T00:06:16.878Z,4.00
2019-04-30T00:07:19.103Z,4.00
2019-04-30T00:08:16.905Z,4.00
2019-04-30T00:09:18.906Z,4.00
2019-04-30T00:10:16.946Z,4.00
2019-04-30T00:11:19.490Z,4.00
2019-04-30T00:12:16.979Z,4.00
2019-04-30T00:13:20.669Z,4.00
2019-04-30T00:14:17.014Z,4.00
2019-04-30T00:15:19.422Z,4.00
2019-04-30T00:16:17.048Z,4.00
2019-04-30T00:17:19.599Z,4.00
2019-04-30T00:18:17.085Z,4.00
2019-04-30T00:19:19.731Z,4.00
2019-04-30T00:20:17.750Z,4.00
2019-04-30T00:21:18.726Z,4.00
2019-04-30T00:22:17.159Z,4.00
2019-04-30T00:23:18.117Z,4.00
2019-04-30T00:24:17.196Z,4.00
2019-04-30T00:25:19.708Z,4.00
2019-04-30T00:26:17.383Z,4.00
2019-04-30T00:27:20.988Z,4.00
2019-04-30T00:28:17.264Z,4.00
2019-04-30T00:29:26.402Z,4.00
2019-04-30T00:30:17.308Z,4.00
2019-04-30T00:31:23.455Z,4.00
2019-04-30T00:32:17.335Z,4.00
2019-04-30T00:33:22.173Z,4.00
2019-04-30T00:34:17.372Z,4.00
2019-04-30T00:35:19.552Z,4.00
2019-04-30T00:36:17.489Z,4.00
2019-04-30T00:37:18.879Z,4.00
2019-04-30T00:38:17.438Z,4.00
2019-04-30T00:39:17.458Z,4.00
2019-04-30T00:40:17.474Z,4.00
2019-04-30T00:41:17.494Z,4.00
2019-04-30T00:42:23.915Z,4.00
2019-04-30T00:43:17.533Z,4.00
2019-04-30T00:44:19.830Z,4.00
2019-04-30T00:45:17.567Z,4.00
2019-04-30T00:47:17.601Z,4.00
2019-04-30T00:48:26.929Z,4.00
2019-04-30T00:49:23.008Z,4.00
2019-04-30T00:50:17.657Z,4.00
2019-04-30T00:51:21.230Z,4.00
2019-04-30T00:52:17.688Z,4.00
2019-04-30T00:53:17.705Z,4.00
2019-04-30T00:54:17.792Z,4.00
2019-04-30T00:55:17.737Z,4.00
2019-04-30T00:56:19.789Z,4.00
2019-04-30T00:57:17.779Z,4.00
2019-04-30T00:58:24.977Z,4.00
2019-04-30T00:59:17.813Z,4.00
2019-04-30T01:00:25.202Z,4.00
2019-04-30T01:01:17.847Z,4.00
2019-04-30T01:02:27.814Z,4.00
2019-04-30T01:03:17.880Z,4.00
2019-04-30T01:04:19.491Z,4.00
2019-04-30T01:05:17.917Z,4.00
2019-04-30T01:06:26.741Z,4.00
2019-04-30T01:07:17.954Z,4.00
2019-04-30T01:08:21.148Z,4.00
2019-04-30T01:09:17.988Z,4.00
2019-04-30T01:10:19.640Z,4.00
2019-04-30T01:11:18.019Z,4.00
2019-04-30T01:12:27.683Z,4.00
2019-04-30T01:13:19.223Z,4.00
2019-04-30T01:14:18.879Z,4.00
2019-04-30T01:15:19.058Z,4.00
2019-04-30T01:16:19.542Z,4.00
2019-04-30T01:17:18.899Z,4.00
2019-04-30T01:18:19.295Z,4.00
2019-04-30T01:19:29.504Z,4.00
2019-04-30T01:20:19.368Z,4.00
2019-04-30T01:21:18.568Z,4.00
2019-04-30T01:22:21.231Z,4.00
2019-04-30T01:23:19.478Z,4.00
2019-04-30T01:24:19.041Z,4.00
2019-04-30T01:25:19.000Z,4.00
2019-04-30T01:26:18.752Z,4.00
2019-04-30T01:27:18.780Z,0.00
2019-04-30T01:28:23.194Z,4.00
2019-04-30T01:29:19.263Z,4.00
2019-04-30T01:30:22.575Z,4.00
2019-04-30T01:31:18.753Z,4.00
2019-04-30T01:32:20.959Z,4.00
2019-04-30T01:33:19.183Z,4.00
2019-04-30T01:34:19.594Z,4.00
2019-04-30T01:35:19.062Z,4.00
2019-04-30T01:36:19.267Z,4.00
2019-04-30T01:37:20.288Z,4.00
2019-04-30T01:38:18.911Z,4.00
2019-04-30T01:39:19.510Z,4.00
2019-04-30T01:40:18.980Z,4.00
2019-04-30T01:41:20.279Z,4.00
2019-04-30T01:42:18.647Z,4.00
2019-04-30T01:43:23.220Z,4.00
2019-04-30T01:44:19.504Z,4.00
2019-04-30T01:45:18.868Z,4.00
2019-04-30T01:46:18.963Z,4.00
2019-04-30T01:47:21.514Z,4.00
2019-04-30T01:48:19.386Z,4.00
2019-04-30T01:49:20.257Z,4.00
2019-04-30T01:50:19.419Z,4.00
2019-04-30T01:51:21.764Z,4.00
2019-04-30T01:52:19.350Z,4.00
2019-04-30T01:53:18.759Z,4.00
2019-04-30T01:54:23.975Z,4.00
2019-04-30T01:55:19.697Z,4.00
2019-04-30T01:56:19.181Z,4.00
2019-04-30T01:57:19.321Z,4.00
2019-04-30T01:58:19.443Z,4.00
2019-04-30T01:59:19.091Z,4.00
2019-04-30T02:00:19.534Z,4.00
2019-04-30T02:01:19.073Z,4.00
2019-04-30T02:02:18.924Z,4.00
2019-04-30T02:03:19.302Z,4.00
2019-04-30T02:04:19.572Z,4.00
2019-04-30T02:05:19.001Z,4.00
2019-04-30T02:06:19.663Z,4.00
2019-04-30T02:07:19.141Z,4.00
2019-04-30T02:08:19.505Z,4.00
2019-04-30T02:09:20.660Z,4.00
2019-04-30T02:10:19.061Z,4.00
2019-04-30T02:11:19.167Z,4.00
2019-04-30T02:12:21.694Z,4.00
2019-04-30T02:13:19.114Z,4.00
2019-04-30T02:14:19.130Z,4.00
2019-04-30T02:15:19.361Z,4.00
2019-04-30T02:16:21.162Z,4.00
2019-04-30T02:17:19.365Z,4.00
2019-04-30T02:18:19.588Z,4.00
2019-04-30T02:19:19.221Z,4.00
2019-04-30T02:20:19.233Z,4.00
2019-04-30T02:21:19.630Z,4.00
2019-04-30T02:22:19.267Z,4.00
2019-04-30T02:23:19.684Z,4.00
2019-04-30T02:24:19.346Z,4.00
2019-04-30T02:25:19.623Z,4.00
2019-04-30T02:26:19.336Z,4.00
2019-04-30T02:27:21.606Z,4.00
2019-04-30T02:28:19.371Z,4.00
2019-04-30T02:29:19.390Z,4.00
2019-04-30T02:30:20.805Z,4.00
2019-04-30T02:31:22.885Z,4.00
2019-04-30T02:32:20.798Z,4.00
2019-04-30T02:33:20.043Z,4.00
2019-04-30T02:34:22.068Z,4.00
2019-04-30T02:35:19.587Z,4.00
2019-04-30T02:36:19.899Z,4.00
2019-04-30T02:37:21.027Z,4.00
2019-04-30T02:38:20.313Z,4.00
2019-04-30T02:39:20.354Z,4.00
2019-04-30T02:40:20.163Z,4.00
2019-04-30T02:41:19.599Z,4.00
2019-04-30T02:42:20.348Z,4.00
2019-04-30T02:43:20.334Z,4.00
2019-04-30T02:44:19.768Z,4.00
2019-04-30T02:45:19.879Z,4.00
2019-04-30T02:46:19.694Z,4.00
2019-04-30T02:47:20.231Z,4.00
2019-04-30T02:48:19.722Z,4.00
2019-04-30T02:49:20.516Z,4.00
2019-04-30T02:50:22.459Z,4.00
2019-04-30T02:51:22.807Z,4.00
2019-04-30T02:52:19.788Z,4.00
2019-04-30T02:53:20.004Z,4.00
2019-04-30T02:54:23.693Z,4.00
2019-04-30T02:55:19.848Z,4.00
2019-04-30T02:56:20.434Z,4.00
2019-04-30T02:57:23.129Z,4.00
2019-04-30T02:58:21.028Z,4.00
2019-04-30T02:59:20.364Z,4.00
2019-04-30T03:00:20.785Z,4.00
2019-04-30T03:01:20.480Z,4.00
2019-04-30T03:02:19.981Z,4.00
2019-04-30T03:03:20.459Z,4.00
2019-04-30T03:04:20.003Z,4.00
2019-04-30T03:05:20.416Z,4.00
2019-04-30T03:06:23.609Z,4.00
2019-04-30T03:07:20.057Z,4.00
2019-04-30T03:08:20.067Z,4.00
2019-04-30T03:09:20.475Z,4.00
2019-04-30T03:10:20.213Z,4.00
2019-04-30T03:11:20.826Z,4.00
2019-04-30T03:12:20.435Z,4.00
2019-04-30T03:13:20.228Z,4.00
2019-04-30T03:14:20.460Z,4.00
2019-04-30T03:15:22.760Z,4.00
2019-04-30T03:16:20.899Z,4.00
2019-04-30T03:17:20.909Z,4.00
2019-04-30T03:18:23.144Z,4.00
2019-04-30T03:19:20.258Z,4.00
2019-04-30T03:20:34.776Z,4.00
2019-04-30T03:21:20.291Z,4.00
2019-04-30T03:22:20.486Z,4.00
2019-04-30T03:23:20.327Z,4.00
2019-04-30T03:24:20.388Z,4.00
2019-04-30T03:25:20.363Z,4.00
2019-04-30T03:26:20.380Z,4.00
2019-04-30T03:27:21.960Z,0.00
2019-04-30T03:28:20.473Z,4.00
2019-04-30T03:29:23.880Z,4.00
2019-04-30T03:30:21.751Z,4.00
2019-04-30T03:31:22.503Z,4.00
2019-04-30T03:32:22.519Z,4.00
2019-04-30T03:33:22.854Z,4.00
2019-04-30T03:34:25.700Z,4.00
2019-04-30T03:35:22.845Z,4.00
2019-04-30T03:36:21.969Z,8.00
2019-04-30T03:37:20.573Z,4.00
2019-04-30T03:38:20.606Z,8.00
2019-04-30T03:39:20.606Z,8.00
2019-04-30T03:40:20.625Z,8.00
2019-04-30T03:41:20.640Z,8.00
2019-04-30T03:42:20.661Z,12.00
2019-04-30T03:43:20.677Z,12.00
2019-04-30T03:44:25.520Z,12.00
2019-04-30T03:45:20.712Z,16.00
2019-04-30T03:46:20.723Z,12.00
2019-04-30T03:47:20.755Z,16.00
2019-04-30T03:48:20.765Z,20.00
2019-04-30T03:49:20.779Z,24.00
2019-04-30T03:50:20.796Z,28.00
2019-04-30T03:51:20.813Z,32.00
2019-04-30T03:52:20.829Z,36.00
2019-04-30T03:53:20.850Z,40.00
2019-04-30T03:54:20.864Z,44.00
2019-04-30T03:55:24.706Z,52.00
2019-04-30T03:56:22.913Z,60.00
2019-04-30T03:57:20.916Z,68.00
2019-04-30T03:58:21.510Z,72.00
2019-04-30T03:59:20.963Z,76.00
2019-04-30T04:00:20.965Z,84.00
2019-04-30T04:01:20.985Z,92.00
2019-04-30T04:02:21.077Z,100.00
2019-04-30T04:03:21.020Z,104.00
2019-04-30T04:04:21.034Z,116.00
2019-04-30T04:05:21.067Z,132.00
2019-04-30T04:06:21.489Z,152.00
2019-04-30T04:07:21.089Z,164.00
2019-04-30T04:08:21.106Z,176.00
2019-04-30T04:09:22.363Z,188.00
2019-04-30T04:10:21.141Z,204.00
2019-04-30T04:11:21.153Z,224.00
2019-04-30T04:12:21.175Z,240.00
2019-04-30T04:13:21.191Z,252.00
2019-04-30T04:14:21.206Z,264.00
2019-04-30T04:15:21.223Z,280.00
2019-04-30T04:16:21.238Z,300.00
2019-04-30T04:17:21.259Z,320.00
2019-04-30T04:18:21.271Z,332.00
2019-04-30T04:19:21.289Z,356.00
2019-04-30T04:20:21.308Z,372.00
2019-04-30T04:21:21.328Z,392.00
2019-04-30T04:22:21.340Z,408.00
2019-04-30T04:23:21.364Z,428.00
2019-04-30T04:25:21.395Z,472.00
2019-04-30T04:26:21.415Z,496.00
2019-04-30T04:27:21.433Z,524.00
2019-04-30T04:28:21.444Z,556.00
2019-04-30T04:29:21.458Z,580.00
2019-04-30T04:30:21.485Z,600.00
2019-04-30T04:31:21.497Z,632.00
2019-04-30T04:32:24.299Z,636.00
2019-04-30T04:33:21.534Z,632.00
2019-04-30T04:34:21.544Z,640.00
2019-04-30T04:35:21.560Z,668.00
2019-04-30T04:36:21.581Z,716.00
2019-04-30T04:37:21.602Z,740.00
2019-04-30T04:38:21.618Z,756.00
2019-04-30T04:39:21.637Z,776.00
2019-04-30T04:40:21.654Z,776.00
2019-04-30T04:41:21.668Z,772.00
2019-04-30T04:42:21.682Z,756.00
2019-04-30T04:43:21.696Z,756.00
2019-04-30T04:44:21.732Z,788.00
2019-04-30T04:45:21.733Z,848.00
2019-04-30T04:46:21.771Z,908.00
2019-04-30T04:47:21.767Z,944.00
2019-04-30T04:48:23.119Z,964.00
2019-04-30T04:49:21.800Z,1004.00
2019-04-30T04:50:21.822Z,1032.00
2019-04-30T04:51:36.759Z,1028.00
2019-04-30T04:52:22.329Z,992.00
2019-04-30T04:53:21.883Z,984.00
2019-04-30T04:54:21.893Z,984.00
2019-04-30T04:55:22.323Z,948.00
2019-04-30T04:56:21.925Z,948.00
2019-04-30T04:57:22.965Z,1000.00
2019-04-30T04:58:21.993Z,1024.00
2019-04-30T04:59:21.968Z,1008.00
2019-04-30T05:00:21.986Z,988.00
2019-04-30T05:01:22.004Z,1044.00
2019-04-30T05:02:22.021Z,1104.00
2019-04-30T05:03:22.039Z,1136.00
2019-04-30T05:04:22.051Z,1204.00
2019-04-30T05:05:22.068Z,1264.00
2019-04-30T05:06:22.411Z,1328.00
2019-04-30T05:07:22.104Z,1420.00
2019-04-30T05:08:22.127Z,1436.00
2019-04-30T05:09:22.144Z,1440.00
2019-04-30T05:10:22.158Z,1396.00
2019-04-30T05:11:22.179Z,1412.00
2019-04-30T05:12:22.187Z,1476.00
2019-04-30T05:13:22.210Z,1524.00
2019-04-30T05:14:22.227Z,1688.00
2019-04-30T05:15:22.240Z,1708.00
2019-04-30T05:16:22.259Z,1656.00
2019-04-30T05:17:22.281Z,1580.00
2019-04-30T05:18:22.823Z,1624.00
2019-04-30T05:19:22.324Z,1652.00
2019-04-30T05:20:22.331Z,1812.00
2019-04-30T05:21:22.342Z,1924.00
2019-04-30T05:22:22.359Z,2008.00
2019-04-30T05:23:22.379Z,2056.00
2019-04-30T05:24:22.402Z,2028.00
2019-04-30T05:25:22.416Z,2000.00
2019-04-30T05:26:22.899Z,2084.00
2019-04-30T05:27:22.451Z,1908.00
2019-04-30T05:28:22.465Z,1932.00
2019-04-30T05:29:22.483Z,2016.00
2019-04-30T05:30:22.498Z,2068.00
2019-04-30T05:31:22.519Z,2140.00
2019-04-30T05:32:22.536Z,2320.00
2019-04-30T05:33:22.557Z,2516.00
2019-04-30T05:34:22.581Z,2656.00
2019-04-30T05:35:22.589Z,2472.00
2019-04-30T05:36:22.605Z,2404.00
2019-04-30T05:37:22.721Z,2384.00
2019-04-30T05:38:22.643Z,2308.00
2019-04-30T05:39:22.654Z,2520.00
2019-04-30T05:40:22.673Z,2148.00
2019-04-30T05:41:22.690Z,2324.00
2019-04-30T05:42:22.710Z,2444.00
2019-04-30T05:43:22.733Z,2400.00
2019-04-30T05:44:22.741Z,2352.00
2019-04-30T05:45:22.760Z,2272.00
2019-04-30T05:46:22.775Z,2448.00
2019-04-30T05:47:22.801Z,2676.00
2019-04-30T05:48:22.810Z,2840.00
2019-04-30T05:49:22.835Z,2836.00
2019-04-30T05:50:22.853Z,2772.00
2019-04-30T05:51:22.870Z,2796.00
2019-04-30T05:52:22.880Z,2792.00
2019-04-30T05:53:22.897Z,2788.00
2019-04-30T05:54:22.923Z,2896.00
2019-04-30T05:55:22.943Z,2948.00
2019-04-30T05:56:22.955Z,2956.00
2019-04-30T05:57:22.968Z,2924.00
2019-04-30T05:58:22.990Z,2956.00
2019-04-30T05:59:23.011Z,3040.00
2019-04-30T06:00:23.020Z,3160.00
2019-04-30T06:01:24.322Z,3444.00
2019-04-30T06:02:23.063Z,3584.00
2019-04-30T06:03:29.702Z,3396.00
2019-04-30T06:04:23.100Z,3196.00
2019-04-30T06:05:23.109Z,3148.00
2019-04-30T06:06:23.129Z,3476.00
2019-04-30T06:07:23.146Z,3724.00
2019-04-30T06:08:23.165Z,3692.00
2019-04-30T06:09:33.583Z,3796.00
2019-04-30T06:10:23.208Z,3928.00
2019-04-30T06:11:23.217Z,4008.00
2019-04-30T06:12:23.240Z,3620.00
2019-04-30T06:13:23.257Z,3224.00
2019-04-30T06:14:23.268Z,3036.00
2019-04-30T06:15:23.285Z,3124.00
2019-04-30T06:16:23.310Z,3168.00
2019-04-30T06:17:23.327Z,3192.00
2019-04-30T06:18:23.342Z,3496.00
2019-04-30T06:19:23.361Z,3404.00
2019-04-30T06:20:23.382Z,3624.00
2019-04-30T06:21:23.391Z,3888.00
2019-04-30T06:22:23.415Z,3952.00
2019-04-30T06:23:23.430Z,3644.00
2019-04-30T06:24:23.451Z,3228.00
2019-04-30T06:25:31.565Z,2984.00
2019-04-30T06:26:23.485Z,2900.00
2019-04-30T06:27:23.503Z,2944.00
2019-04-30T06:28:23.516Z,3220.00
2019-04-30T06:29:23.536Z,3584.00
2019-04-30T06:30:23.555Z,3812.00
2019-04-30T06:31:32.246Z,3784.00
2019-04-30T06:32:23.591Z,3644.00
2019-04-30T06:33:23.609Z,3516.00
2019-04-30T06:34:23.623Z,3492.00
2019-04-30T06:35:23.643Z,3300.00
2019-04-30T06:36:23.662Z,3228.00
2019-04-30T06:37:23.677Z,3216.00
2019-04-30T06:38:23.694Z,3668.00
2019-04-30T06:39:23.713Z,3416.00
2019-04-30T06:40:23.732Z,3312.00
2019-04-30T06:41:23.751Z,3456.00
2019-04-30T06:42:23.772Z,3920.00
2019-04-30T06:43:23.785Z,3792.00
2019-04-30T06:44:34.982Z,3636.00
2019-04-30T06:45:23.825Z,3336.00
2019-04-30T06:46:23.846Z,3252.00
2019-04-30T06:47:32.751Z,3104.00
2019-04-30T06:48:23.875Z,3044.00
2019-04-30T06:49:23.890Z,3116.00
2019-04-30T06:50:23.907Z,3236.00
2019-04-30T06:51:23.926Z,3360.00
2019-04-30T06:52:23.942Z,3504.00
2019-04-30T06:53:23.964Z,3720.00
2019-04-30T06:54:23.977Z,3504.00
2019-04-30T06:55:23.997Z,3276.00
2019-04-30T06:56:24.012Z,3148.00
2019-04-30T06:57:24.032Z,3224.00
2019-04-30T06:58:24.052Z,3548.00
2019-04-30T06:59:24.065Z,4328.00
2019-04-30T07:00:32.957Z,4640.00
2019-04-30T07:01:24.099Z,4620.00
2019-04-30T07:02:24.117Z,4396.00
2019-04-30T07:03:24.135Z,4284.00
2019-04-30T07:04:24.159Z,4184.00
2019-04-30T07:05:24.177Z,4148.00
2019-04-30T07:06:29.782Z,4048.00
2019-04-30T07:07:35.795Z,4040.00
2019-04-30T07:08:36.075Z,4216.00
2019-04-30T07:09:26.728Z,4624.00
2019-04-30T07:10:24.261Z,4736.00
2019-04-30T07:11:24.279Z,4412.00
2019-04-30T07:12:27.888Z,4196.00
2019-04-30T07:13:24.322Z,4232.00
2019-04-30T07:14:24.335Z,4384.00
2019-04-30T07:15:24.357Z,4336.00
2019-04-30T07:16:24.365Z,4444.00
2019-04-30T07:17:24.390Z,4712.00
2019-04-30T07:18:24.405Z,4836.00
2019-04-30T07:19:32.935Z,4700.00
2019-04-30T07:20:24.444Z,4484.00
2019-04-30T07:21:24.712Z,4616.00
2019-04-30T07:22:39.092Z,4820.00
2019-04-30T07:23:24.496Z,4532.00
2019-04-30T07:24:24.510Z,4480.00
2019-04-30T07:25:24.525Z,4520.00
2019-04-30T07:26:24.851Z,4788.00
2019-04-30T07:27:24.562Z,4964.00
2019-04-30T07:28:42.713Z,5352.00
2019-04-30T07:29:24.602Z,5272.00
2019-04-30T07:30:24.624Z,4868.00
2019-04-30T07:31:24.640Z,5160.00
2019-04-30T07:32:24.658Z,5468.00
2019-04-30T07:33:24.671Z,5004.00
2019-04-30T07:34:24.692Z,4852.00
2019-04-30T07:35:24.709Z,4988.00
2019-04-30T07:36:42.512Z,4956.00
2019-04-30T07:37:24.922Z,4872.00
2019-04-30T07:38:24.767Z,4448.00
2019-04-30T07:39:31.708Z,4296.00
2019-04-30T07:40:24.798Z,3812.00
2019-04-30T07:41:24.821Z,3388.00
2019-04-30T07:42:24.839Z,3228.00
2019-04-30T07:43:24.855Z,3276.00
2019-04-30T07:45:25.762Z,3908.00
2019-04-30T07:46:24.933Z,5492.00
2019-04-30T07:47:24.927Z,5008.00
2019-04-30T07:48:26.581Z,5476.00
2019-04-30T07:49:24.964Z,6492.00
2019-04-30T07:50:25.560Z,7420.00
2019-04-30T07:51:25.479Z,8344.00
2019-04-30T07:52:25.875Z,8632.00
2019-04-30T07:53:25.036Z,8320.00
2019-04-30T07:54:25.054Z,8300.00
2019-04-30T07:55:25.074Z,8140.00
2019-04-30T07:56:28.399Z,7744.00
2019-04-30T07:57:25.113Z,7560.00
2019-04-30T07:58:25.127Z,5188.00
2019-04-30T07:59:25.150Z,5652.00
2019-04-30T08:00:25.169Z,4260.00
2019-04-30T08:01:25.306Z,4180.00
2019-04-30T08:02:25.203Z,5860.00
2019-04-30T08:03:25.602Z,4268.00
2019-04-30T08:04:25.238Z,3888.00
2019-04-30T08:05:25.266Z,3920.00
2019-04-30T08:06:25.308Z,5080.00
2019-04-30T08:07:25.350Z,5844.00
2019-04-30T08:08:25.973Z,5932.00
2019-04-30T08:09:25.334Z,5832.00
2019-04-30T08:09:35.037Z,3492.00
2019-04-30T08:10:25.757Z,4988.00
2019-04-30T08:11:26.424Z,5616.00
2019-04-30T08:12:30.950Z,4108.00
2019-04-30T08:13:25.996Z,5972.00
2019-04-30T08:14:25.425Z,6036.00
2019-04-30T08:15:25.452Z,6040.00
2019-04-30T08:16:25.466Z,6048.00
2019-04-30T08:17:25.481Z,5928.00
2019-04-30T08:18:25.502Z,5788.00
2019-04-30T08:19:25.529Z,5824.00
2019-04-30T08:20:25.538Z,5936.00
2019-04-30T08:21:25.561Z,5928.00
2019-04-30T08:22:25.575Z,5988.00
2019-04-30T08:23:34.843Z,5988.00
2019-04-30T08:24:25.618Z,5892.00
2019-04-30T08:25:25.634Z,5872.00
2019-04-30T08:26:25.657Z,5844.00
2019-04-30T08:27:25.673Z,5912.00
2019-04-30T08:28:25.694Z,5868.00
2019-04-30T08:29:25.710Z,5852.00
2019-04-30T08:30:26.910Z,6012.00
2019-04-30T08:31:25.750Z,5964.00
2019-04-30T08:32:25.766Z,5996.00
2019-04-30T08:33:25.783Z,6152.00
2019-04-30T08:34:25.810Z,6116.00
2019-04-30T08:35:25.825Z,6088.00
2019-04-30T08:36:25.848Z,6140.00
2019-04-30T08:37:25.865Z,6176.00
2019-04-30T08:38:25.885Z,6112.00
2019-04-30T08:39:25.901Z,5848.00
2019-04-30T08:40:25.918Z,6464.00
2019-04-30T08:41:25.936Z,6480.00
2019-04-30T08:42:31.737Z,6600.00
2019-04-30T08:43:25.981Z,6444.00
2019-04-30T08:44:25.999Z,6364.00
2019-04-30T08:45:26.015Z,6636.00
2019-04-30T08:46:26.033Z,6388.00
2019-04-30T08:47:26.057Z,6684.00
2019-04-30T08:48:41.669Z,6556.00
2019-04-30T08:49:26.381Z,6560.00
2019-04-30T08:50:26.196Z,5876.00
2019-04-30T08:51:26.146Z,5876.00
2019-04-30T08:52:26.163Z,5408.00
2019-04-30T08:53:30.094Z,4532.00
2019-04-30T08:54:26.183Z,6088.00
2019-04-30T08:55:26.203Z,5708.00
2019-04-30T08:56:26.227Z,5644.00
2019-04-30T08:57:26.242Z,5020.00
2019-04-30T08:58:26.259Z,3792.00
2019-04-30T08:59:26.280Z,3648.00
2019-04-30T09:00:26.304Z,5728.00
2019-04-30T09:01:26.318Z,6100.00
2019-04-30T09:02:26.337Z,5304.00
2019-04-30T09:03:26.363Z,5504.00
2019-04-30T09:04:26.380Z,5676.00
2019-04-30T09:05:28.671Z,5736.00
2019-04-30T09:06:28.701Z,6064.00
2019-04-30T09:07:26.461Z,6032.00
2019-04-30T09:08:26.460Z,6264.00
2019-04-30T09:09:26.490Z,6184.00
2019-04-30T09:10:26.499Z,6160.00
2019-04-30T09:11:32.214Z,6284.00
2019-04-30T09:12:26.529Z,6292.00
2019-04-30T09:13:28.531Z,6012.00
2019-04-30T09:14:26.576Z,6348.00
2019-04-30T09:15:26.594Z,6176.00
2019-04-30T09:16:26.684Z,6268.00
2019-04-30T09:17:26.626Z,6204.00
2019-04-30T09:18:26.643Z,6080.00
2019-04-30T09:19:26.664Z,6064.00
2019-04-30T09:20:26.688Z,6064.00
2019-04-30T09:21:26.703Z,6308.00
2019-04-30T09:22:26.721Z,6084.00
2019-04-30T09:23:34.323Z,6084.00
2019-04-30T09:24:26.760Z,6104.00
2019-04-30T09:25:28.506Z,6064.00
2019-04-30T09:26:28.905Z,6108.00
2019-04-30T09:27:26.821Z,6020.00
2019-04-30T09:28:26.838Z,5888.00
2019-04-30T09:29:26.863Z,5872.00
2019-04-30T09:30:26.877Z,6000.00
2019-04-30T09:31:26.894Z,6008.00
2019-04-30T09:32:28.977Z,6032.00
2019-04-30T09:33:26.937Z,5984.00
2019-04-30T09:34:28.898Z,6012.00
2019-04-30T09:35:29.524Z,5808.00
2019-04-30T09:36:29.070Z,5620.00
2019-04-30T09:37:27.018Z,5764.00
2019-04-30T09:38:28.909Z,5796.00
2019-04-30T09:39:27.053Z,5772.00
2019-04-30T09:40:30.115Z,5740.00
2019-04-30T09:41:28.776Z,5776.00
2019-04-30T09:42:29.475Z,5812.00
2019-04-30T09:43:28.629Z,5784.00
2019-04-30T09:44:30.511Z,5676.00
2019-04-30T09:45:28.565Z,5708.00
2019-04-30T09:46:29.702Z,5828.00
2019-04-30T09:47:27.228Z,5964.00
2019-04-30T09:48:30.309Z,5764.00
2019-04-30T09:49:29.280Z,5596.00
2019-04-30T09:50:29.002Z,5660.00
2019-04-30T09:51:29.913Z,5720.00
2019-04-30T09:52:30.094Z,5748.00
2019-04-30T09:53:29.390Z,5608.00
2019-04-30T09:54:29.011Z,5668.00
2019-04-30T09:55:29.087Z,5544.00
2019-04-30T09:56:29.350Z,5484.00
2019-04-30T09:57:29.028Z,5488.00
2019-04-30T09:58:27.431Z,5264.00
2019-04-30T09:59:29.198Z,5396.00
2019-04-30T10:00:29.306Z,5440.00
2019-04-30T10:01:27.483Z,5452.00
2019-04-30T10:02:29.077Z,5288.00
2019-04-30T10:03:29.713Z,5256.00
2019-04-30T10:04:29.787Z,5548.00
2019-04-30T10:05:29.304Z,5780.00
2019-04-30T10:06:38.928Z,5588.00
2019-04-30T10:07:29.264Z,5488.00
2019-04-30T10:08:30.328Z,5504.00
2019-04-30T10:09:29.373Z,5416.00
2019-04-30T10:10:28.906Z,5544.00
2019-04-30T10:11:27.683Z,5368.00
2019-04-30T10:12:29.404Z,5368.00
2019-04-30T10:13:27.724Z,5364.00
2019-04-30T10:14:27.748Z,5216.00
2019-04-30T10:15:28.925Z,4912.00
2019-04-30T10:16:29.517Z,5060.00
2019-04-30T10:17:27.807Z,5076.00
2019-04-30T10:18:27.824Z,5280.00
2019-04-30T10:19:29.233Z,5212.00
2019-04-30T10:20:27.865Z,5260.00
2019-04-30T10:21:29.010Z,5192.00
2019-04-30T10:22:27.907Z,5340.00
2019-04-30T10:23:27.928Z,5116.00
2019-04-30T10:24:29.489Z,5096.00
2019-04-30T10:25:27.966Z,5168.00
2019-04-30T10:26:27.982Z,5132.00
2019-04-30T10:27:29.381Z,5172.00
2019-04-30T10:28:28.049Z,5168.00
2019-04-30T10:29:28.046Z,5072.00
2019-04-30T10:30:29.189Z,5120.00
2019-04-30T10:31:29.332Z,5068.00
2019-04-30T10:32:29.993Z,5064.00
2019-04-30T10:33:28.680Z,4976.00
2019-04-30T10:34:28.149Z,5004.00
2019-04-30T10:35:28.630Z,5048.00
2019-04-30T10:36:29.525Z,4864.00
2019-04-30T10:37:28.745Z,4860.00
2019-04-30T10:38:29.360Z,4856.00
2019-04-30T10:39:29.716Z,4988.00
2019-04-30T10:40:28.745Z,4924.00
2019-04-30T10:41:28.873Z,4944.00
2019-04-30T10:42:28.859Z,5008.00
2019-04-30T10:43:29.069Z,5056.00
2019-04-30T10:44:29.832Z,5132.00
2019-04-30T10:45:28.831Z,5004.00
2019-04-30T10:46:28.383Z,5184.00
2019-04-30T10:47:29.582Z,4868.00
2019-04-30T10:48:28.426Z,4864.00
2019-04-30T10:49:29.176Z,4724.00
2019-04-30T10:50:28.472Z,5040.00
2019-04-30T10:51:28.879Z,4964.00
2019-04-30T10:52:29.245Z,4848.00
2019-04-30T10:53:28.525Z,4772.00
2019-04-30T10:54:29.141Z,4916.00
2019-04-30T10:55:28.723Z,4932.00
2019-04-30T10:56:29.134Z,4920.00
2019-04-30T10:57:28.628Z,4960.00
2019-04-30T10:58:28.642Z,4948.00
2019-04-30T10:59:28.653Z,4856.00
2019-04-30T11:00:28.716Z,4912.00
2019-04-30T11:01:29.212Z,4892.00
2019-04-30T11:02:31.141Z,4792.00
2019-04-30T11:03:29.124Z,4944.00
2019-04-30T11:04:28.755Z,4736.00
2019-04-30T11:05:29.294Z,4740.00
2019-04-30T11:06:28.791Z,4708.00
2019-04-30T11:07:28.985Z,4756.00
2019-04-30T11:08:28.832Z,4776.00
2019-04-30T11:09:29.293Z,4796.00
2019-04-30T11:10:28.874Z,4776.00
2019-04-30T11:11:30.610Z,4800.00
2019-04-30T11:12:29.311Z,5024.00
2019-04-30T11:13:28.940Z,4976.00
2019-04-30T11:14:28.956Z,4956.00
2019-04-30T11:15:29.318Z,4792.00
2019-04-30T11:16:29.743Z,4976.00
2019-04-30T11:17:30.015Z,4876.00
2019-04-30T11:18:29.228Z,4776.00
2019-04-30T11:19:29.530Z,4756.00
2019-04-30T11:20:29.851Z,4768.00
2019-04-30T11:21:29.610Z,4848.00
2019-04-30T11:22:29.272Z,4792.00
2019-04-30T11:23:29.728Z,4856.00
2019-04-30T11:24:36.618Z,4824.00
2019-04-30T11:25:31.354Z,4860.00
2019-04-30T11:26:31.595Z,4784.00
2019-04-30T11:27:30.664Z,4916.00
2019-04-30T11:28:29.508Z,4784.00
2019-04-30T11:29:30.965Z,4828.00
2019-04-30T11:30:29.894Z,4852.00
2019-04-30T11:31:29.475Z,5016.00
2019-04-30T11:32:29.557Z,5048.00
2019-04-30T11:33:29.359Z,5224.00
2019-04-30T11:34:29.373Z,5388.00
2019-04-30T11:35:29.769Z,5524.00
2019-04-30T11:36:29.425Z,5344.00
2019-04-30T11:37:29.439Z,5264.00
2019-04-30T11:38:29.993Z,5172.00
2019-04-30T11:39:29.855Z,5292.00
2019-04-30T11:40:34.034Z,4964.00
2019-04-30T11:41:33.039Z,4880.00
2019-04-30T11:42:32.094Z,5012.00
2019-04-30T11:43:29.570Z,4644.00
2019-04-30T11:44:31.467Z,4624.00
2019-04-30T11:45:29.605Z,4496.00
2019-04-30T11:46:29.628Z,4468.00
2019-04-30T11:47:29.654Z,4456.00
2019-04-30T11:48:29.674Z,4496.00
2019-04-30T11:49:29.688Z,4444.00
2019-04-30T11:50:30.158Z,4608.00
2019-04-30T11:51:29.733Z,4492.00
2019-04-30T11:52:29.751Z,4604.00
2019-04-30T11:53:30.709Z,4616.00
2019-04-30T11:54:29.978Z,4556.00
2019-04-30T11:55:29.817Z,4568.00
2019-04-30T11:56:29.840Z,4648.00
2019-04-30T11:57:29.984Z,4604.00
2019-04-30T11:58:30.563Z,4496.00
2019-04-30T11:59:29.919Z,4392.00
2019-04-30T12:00:29.932Z,4384.00
2019-04-30T12:01:29.949Z,4284.00
2019-04-30T12:02:29.967Z,4344.00
2019-04-30T12:03:30.392Z,4420.00
2019-04-30T12:04:30.068Z,4292.00
2019-04-30T12:05:30.037Z,4340.00
2019-04-30T12:06:30.055Z,4384.00
2019-04-30T12:07:30.067Z,4396.00
2019-04-30T12:08:30.091Z,4372.00
2019-04-30T12:09:30.116Z,4356.00
2019-04-30T12:10:30.138Z,4416.00
2019-04-30T12:11:30.153Z,4460.00
2019-04-30T12:12:30.172Z,4420.00
2019-04-30T12:13:30.199Z,4424.00
2019-04-30T12:14:30.216Z,4308.00
2019-04-30T12:15:30.238Z,4328.00
2019-04-30T12:16:30.312Z,4248.00
2019-04-30T12:17:30.380Z,4300.00
2019-04-30T12:18:30.298Z,4296.00
2019-04-30T12:19:30.328Z,4312.00
2019-04-30T12:20:30.347Z,4284.00
2019-04-30T12:21:30.368Z,4312.00
2019-04-30T12:22:30.387Z,4348.00
2019-04-30T12:23:30.406Z,4380.00
2019-04-30T12:24:30.494Z,4376.00
2019-04-30T12:25:30.494Z,4392.00
2019-04-30T12:26:30.468Z,4468.00
2019-04-30T12:27:30.495Z,4408.00
2019-04-30T12:28:30.512Z,4404.00
2019-04-30T12:29:30.532Z,4396.00
2019-04-30T12:30:30.552Z,4420.00